createdAt,value
2022-11-02T00:00:52.554Z,59.44
2022-11-02T00:03:19.734Z,59.43
2022-11-02T00:05:47.071Z,59.35
2022-11-02T00:08:14.211Z,59.26
2022-11-02T00:10:41.379Z,59.35
2022-11-02T00:13:08.550Z,59.31
2022-11-02T00:15:37.394Z,59.18
2022-11-02T00:18:10.776Z,59.06
2022-11-02T00:20:41.945Z,59.13
2022-11-02T00:23:11.931Z,59.03
2022-11-02T00:25:47.615Z,58.72
2022-11-02T00:28:15.689Z,59.11
2022-11-02T00:30:44.390Z,59.18
2022-11-02T00:33:11.772Z,58.85
2022-11-02T00:35:40.336Z,58.98
2022-11-02T00:38:07.711Z,58.79
2022-11-02T00:40:35.059Z,58.90
2022-11-02T00:43:02.252Z,58.82
2022-11-02T00:45:29.444Z,58.17
2022-11-02T00:47:56.606Z,58.59
2022-11-02T00:50:24.334Z,58.83
2022-11-02T00:52:51.532Z,58.62
2022-11-02T00:55:18.666Z,58.68
2022-11-02T00:57:45.795Z,58.38
2022-11-02T01:00:14.002Z,58.20
2022-11-02T01:02:42.359Z,58.37
2022-11-02T01:05:11.241Z,58.61
2022-11-02T01:07:39.658Z,58.60
2022-11-02T01:10:10.067Z,58.62
2022-11-02T01:12:39.398Z,58.36
2022-11-02T01:15:08.436Z,58.64
2022-11-02T01:17:36.173Z,58.66
2022-11-02T01:20:04.950Z,58.59
2022-11-02T01:22:32.485Z,58.58
2022-11-02T01:24:59.654Z,58.65
2022-11-02T01:27:26.968Z,58.87
2022-11-02T01:29:54.788Z,58.77
2022-11-02T01:32:22.121Z,58.64
2022-11-02T01:34:49.365Z,58.63
2022-11-02T01:37:16.527Z,58.75
2022-11-02T01:39:43.638Z,59.24
2022-11-02T01:42:26.596Z,59.15
2022-11-02T01:44:54.208Z,59.19
2022-11-02T01:47:32.786Z,59.37
2022-11-02T01:50:20.866Z,59.25
2022-11-02T01:52:48.065Z,59.04
2022-11-02T01:55:23.637Z,59.15
2022-11-02T01:58:12.302Z,58.91
2022-11-02T02:00:40.553Z,59.00
2022-11-02T02:03:18.251Z,58.66
2022-11-02T02:05:56.043Z,58.77
2022-11-02T02:08:26.953Z,58.34
2022-11-02T02:10:58.742Z,58.27
2022-11-02T02:13:28.716Z,58.66
2022-11-02T02:16:21.049Z,58.52
2022-11-02T02:18:57.443Z,58.42
2022-11-02T02:21:47.566Z,58.73
2022-11-02T02:24:46.292Z,58.54
2022-11-02T02:27:42.467Z,58.63
2022-11-02T02:30:12.041Z,58.80
2022-11-02T02:32:49.123Z,58.47
2022-11-02T02:35:49.942Z,58.42
2022-11-02T02:38:42.897Z,58.54
2022-11-02T02:41:30.910Z,58.40
2022-11-02T02:44:03.148Z,58.37
2022-11-02T02:46:46.649Z,58.24
2022-11-02T02:49:22.089Z,58.42
2022-11-02T02:51:51.234Z,58.18
2022-11-02T02:54:28.963Z,58.26
2022-11-02T02:57:06.932Z,58.19
2022-11-02T02:59:42.945Z,58.15
2022-11-02T03:02:21.939Z,58.01
2022-11-02T03:04:49.267Z,58.46
2022-11-02T03:07:45.885Z,58.03
2022-11-02T03:10:39.620Z,58.25
2022-11-02T03:13:34.506Z,58.54
2022-11-02T03:16:48.722Z,58.31
2022-11-02T03:19:24.909Z,58.19
2022-11-02T03:22:26.521Z,58.21
2022-11-02T03:25:23.069Z,58.38
2022-11-02T03:28:05.592Z,58.27
2022-11-02T03:30:44.100Z,58.57
2022-11-02T03:33:25.013Z,58.33
2022-11-02T03:36:12.979Z,58.30
2022-11-02T03:39:07.345Z,58.30
2022-11-02T03:41:37.973Z,58.09
2022-11-02T03:44:14.949Z,57.81
2022-11-02T03:46:45.897Z,57.85
2022-11-02T03:49:20.358Z,57.95
2022-11-02T03:51:50.535Z,58.07
2022-11-02T03:54:50.382Z,57.91
2022-11-02T03:57:29.897Z,58.17
2022-11-02T04:00:13.867Z,58.48
2022-11-02T04:02:47.325Z,58.49
2022-11-02T04:05:14.954Z,58.95
2022-11-02T04:07:50.011Z,58.90
2022-11-02T04:10:17.449Z,59.07
2022-11-02T04:12:44.828Z,59.08
2022-11-02T04:15:11.992Z,59.00
2022-11-02T04:17:39.198Z,59.40
2022-11-02T04:20:07.325Z,59.22
2022-11-02T04:22:34.470Z,59.54
2022-11-02T04:25:01.777Z,59.43
2022-11-02T04:27:29.036Z,59.60
2022-11-02T04:29:56.219Z,59.48
2022-11-02T04:32:23.529Z,59.39
2022-11-02T04:34:50.716Z,59.41
2022-11-02T04:37:17.880Z,59.66
2022-11-02T04:39:45.094Z,60.04
2022-11-02T04:42:12.163Z,59.95
2022-11-02T04:44:39.345Z,59.91
2022-11-02T04:47:06.637Z,59.86
2022-11-02T04:49:33.845Z,60.31
2022-11-02T04:52:01.051Z,60.33
2022-11-02T04:54:28.179Z,60.29
2022-11-02T04:56:55.330Z,60.06
2022-11-02T04:59:22.516Z,59.92
2022-11-02T05:01:49.862Z,59.97
2022-11-02T05:04:17.148Z,59.81
2022-11-02T05:06:44.296Z,59.75
2022-11-02T05:09:11.401Z,59.65
2022-11-02T05:11:38.588Z,59.92
2022-11-02T05:14:05.902Z,60.15
2022-11-02T05:16:33.396Z,60.14
2022-11-02T05:19:00.538Z,60.23
2022-11-02T05:21:27.646Z,60.60
2022-11-02T05:23:54.871Z,60.83
2022-11-02T05:26:22.223Z,60.90
2022-11-02T05:28:49.475Z,61.11
2022-11-02T05:31:16.612Z,61.13
2022-11-02T05:33:43.739Z,61.31
2022-11-02T05:36:11.035Z,61.49
2022-11-02T05:41:09.559Z,61.95
2022-11-02T05:43:36.751Z,61.97
2022-11-02T05:46:05.288Z,62.09
2022-11-02T05:48:33.796Z,62.33
2022-11-02T05:51:04.136Z,62.15
2022-11-02T05:53:33.555Z,62.46
2022-11-02T05:56:02.489Z,62.58
2022-11-02T05:58:29.944Z,62.33
2022-11-02T06:01:02.828Z,62.67
2022-11-02T06:03:31.658Z,62.80
2022-11-02T06:06:01.780Z,62.88
2022-11-02T06:08:32.273Z,62.79
2022-11-02T06:11:06.944Z,62.95
2022-11-02T06:13:34.684Z,62.77
2022-11-02T06:16:05.097Z,62.88
2022-11-02T06:18:32.439Z,62.75
2022-11-02T06:21:00.651Z,62.88
2022-11-02T06:23:29.468Z,62.82
2022-11-02T06:26:00.228Z,63.06
2022-11-02T06:28:28.798Z,62.98
2022-11-02T06:30:56.611Z,63.09
2022-11-02T06:33:24.150Z,62.98
2022-11-02T06:35:54.156Z,63.15
2022-11-02T06:38:22.236Z,63.14
2022-11-02T06:41:01.839Z,63.04
2022-11-02T06:43:29.016Z,63.04
2022-11-02T06:45:58.391Z,63.04
2022-11-02T06:48:34.230Z,62.77
2022-11-02T06:51:04.142Z,62.91
2022-11-02T06:53:31.614Z,62.84
2022-11-02T06:56:00.405Z,62.65
2022-11-02T06:58:27.985Z,62.44
2022-11-02T07:01:05.464Z,62.78
2022-11-02T07:03:33.203Z,62.69
2022-11-02T07:06:00.977Z,62.61
2022-11-02T07:08:28.719Z,62.50
2022-11-02T07:10:56.337Z,62.51
2022-11-02T07:13:24.164Z,62.04
2022-11-02T07:15:57.745Z,62.32
2022-11-02T07:18:24.982Z,62.30
2022-11-02T07:20:52.172Z,62.24
2022-11-02T07:23:19.551Z,62.26
2022-11-02T07:25:46.689Z,62.45
2022-11-02T07:28:14.049Z,62.37
2022-11-02T07:30:41.254Z,62.49
2022-11-02T07:33:08.705Z,62.35
2022-11-02T07:35:36.170Z,62.25
2022-11-02T07:38:07.976Z,62.05
2022-11-02T07:40:36.876Z,62.12
2022-11-02T07:43:05.480Z,62.03
2022-11-02T07:45:33.413Z,61.88
2022-11-02T07:48:00.630Z,62.01
2022-11-02T07:50:27.826Z,61.92
2022-11-02T07:52:58.270Z,61.99
2022-11-02T07:55:29.495Z,62.09
2022-11-02T07:58:10.402Z,62.21
2022-11-02T08:00:39.962Z,62.24
2022-11-02T08:03:10.189Z,62.41
2022-11-02T08:05:41.175Z,62.58
2022-11-02T08:08:21.498Z,62.58
2022-11-02T08:10:52.244Z,62.64
2022-11-02T08:13:24.392Z,62.68
2022-11-02T08:15:54.074Z,62.72
2022-11-02T08:18:27.607Z,62.83
2022-11-02T08:20:59.442Z,62.46
2022-11-02T08:23:27.247Z,62.64
2022-11-02T08:25:58.011Z,62.67
2022-11-02T08:28:29.148Z,62.45
2022-11-02T08:30:58.180Z,62.42
2022-11-02T08:33:25.717Z,62.53
2022-11-02T08:35:52.964Z,62.58
2022-11-02T08:38:20.603Z,62.49
2022-11-02T08:40:48.473Z,62.22
2022-11-02T08:43:15.928Z,62.27
2022-11-02T08:48:32.550Z,62.39
2022-11-02T08:50:59.812Z,62.46
2022-11-02T08:53:27.010Z,62.42
2022-11-02T08:55:57.789Z,62.55
2022-11-02T08:58:24.975Z,62.60
2022-11-02T09:00:53.950Z,62.57
2022-11-02T09:03:26.121Z,62.41
2022-11-02T09:06:02.146Z,62.44
2022-11-02T09:08:30.453Z,62.63
2022-11-02T09:11:03.554Z,62.48
2022-11-02T09:13:30.880Z,61.97
2022-11-02T09:16:00.257Z,62.00
2022-11-02T09:18:27.773Z,61.82
2022-11-02T09:20:55.627Z,61.68
2022-11-02T09:23:23.765Z,61.52
2022-11-02T09:25:51.219Z,61.55
2022-11-02T09:28:18.808Z,61.60
2022-11-02T09:30:46.483Z,61.61
2022-11-02T09:33:13.801Z,61.76
2022-11-02T09:35:46.903Z,61.29
2022-11-02T09:38:14.929Z,61.25
2022-11-02T09:41:00.292Z,60.76
2022-11-02T09:44:14.452Z,61.01
2022-11-02T09:46:46.969Z,61.14
2022-11-02T09:49:18.793Z,60.93
2022-11-02T09:51:56.099Z,60.61
2022-11-02T09:54:40.467Z,60.47
2022-11-02T09:57:16.792Z,60.17
2022-11-02T09:59:44.201Z,60.48
2022-11-02T10:02:39.074Z,59.94
2022-11-02T10:05:24.916Z,60.19
2022-11-02T10:08:01.080Z,59.97
2022-11-02T10:10:42.029Z,60.20
2022-11-02T10:13:34.785Z,60.52
2022-11-02T10:16:28.050Z,60.30
2022-11-02T10:18:55.335Z,60.01
2022-11-02T10:21:33.885Z,59.85
2022-11-02T10:24:28.979Z,59.37
2022-11-02T10:27:00.867Z,59.26
2022-11-02T10:29:45.825Z,59.04
2022-11-02T10:32:15.697Z,58.96
2022-11-02T10:34:50.482Z,58.46
2022-11-02T10:38:04.453Z,58.31
2022-11-02T10:41:24.106Z,58.49
2022-11-02T10:44:09.187Z,58.56
2022-11-02T10:47:11.412Z,57.65
2022-11-02T10:49:59.798Z,57.50
2022-11-02T10:52:42.378Z,56.96
2022-11-02T10:55:36.769Z,56.50
2022-11-02T10:58:09.172Z,56.29
2022-11-02T11:00:37.783Z,56.14
2022-11-02T11:03:15.161Z,57.14
2022-11-02T11:05:51.556Z,57.32
2022-11-02T11:08:36.853Z,56.91
2022-11-02T11:11:24.167Z,57.51
2022-11-02T11:20:24.577Z,57.21
2022-11-02T11:23:26.827Z,56.41
2022-11-02T11:25:58.294Z,56.12
2022-11-02T11:28:28.440Z,55.37
2022-11-02T11:31:08.897Z,54.74
2022-11-02T11:33:57.857Z,53.05
2022-11-02T11:36:32.142Z,52.40
2022-11-02T11:39:30.245Z,51.37
2022-11-02T11:41:58.838Z,51.36
2022-11-02T11:44:26.713Z,51.57
2022-11-02T11:46:58.109Z,51.60
2022-11-02T11:52:34.540Z,52.44
2022-11-02T11:55:24.655Z,52.56
2022-11-02T11:58:45.370Z,52.92
2022-11-02T12:01:17.927Z,53.20
2022-11-02T12:04:00.022Z,53.17
2022-11-02T12:06:50.754Z,54.01
2022-11-02T12:09:23.692Z,54.66
2022-11-02T12:12:08.892Z,54.61
2022-11-02T12:15:09.276Z,54.79
2022-11-02T12:18:13.655Z,55.33
2022-11-02T12:21:13.533Z,55.21
2022-11-02T12:23:59.153Z,55.50
2022-11-02T12:27:00.252Z,55.01
2022-11-02T12:30:15.212Z,53.85
2022-11-02T12:33:03.516Z,54.75
2022-11-02T12:36:07.612Z,54.01
2022-11-02T12:38:59.763Z,54.83
2022-11-02T12:42:01.839Z,54.22
2022-11-02T12:44:47.617Z,51.04
2022-11-02T12:47:53.098Z,50.50
2022-11-02T12:50:51.045Z,49.98
2022-11-02T12:53:36.922Z,50.02
2022-11-02T12:56:11.862Z,50.68
2022-11-02T12:58:41.645Z,51.22
2022-11-02T13:01:38.023Z,52.35
2022-11-02T13:04:26.016Z,52.89
2022-11-02T13:07:09.763Z,53.80
2022-11-02T13:09:51.847Z,53.92
2022-11-02T13:12:23.841Z,54.19
2022-11-02T13:14:56.638Z,54.33
2022-11-02T13:17:40.802Z,54.87
2022-11-02T13:20:21.981Z,55.13
2022-11-02T13:23:04.503Z,55.62
2022-11-02T13:25:55.416Z,55.68
2022-11-02T13:28:42.545Z,55.10
2022-11-02T13:31:25.650Z,55.41
2022-11-02T13:33:57.547Z,55.70
2022-11-02T13:36:25.977Z,56.42
2022-11-02T13:39:19.549Z,55.63
2022-11-02T13:41:55.467Z,56.17
2022-11-02T13:44:40.540Z,56.60
2022-11-02T13:48:21.288Z,56.01
2022-11-02T13:50:57.558Z,55.95
2022-11-02T13:53:39.837Z,56.17
2022-11-02T13:56:21.389Z,56.12
2022-11-02T13:58:57.248Z,56.30
2022-11-02T14:01:26.882Z,56.52
2022-11-02T14:04:09.335Z,56.61
2022-11-02T14:07:02.971Z,56.78
2022-11-02T14:09:42.028Z,57.11
2022-11-02T14:12:27.155Z,57.36
2022-11-02T14:15:23.658Z,57.67
2022-11-02T14:17:53.794Z,57.41
2022-11-02T14:20:44.159Z,58.04
2022-11-02T14:23:11.367Z,57.91
2022-11-02T14:25:45.781Z,57.63
2022-11-02T14:28:22.164Z,57.45
2022-11-02T14:31:05.540Z,57.42
2022-11-02T14:34:30.931Z,57.57
2022-11-02T14:37:33.176Z,57.82
2022-11-02T14:40:31.155Z,57.92
2022-11-02T14:43:31.917Z,57.72
2022-11-02T14:46:38.265Z,57.89
2022-11-02T14:49:15.778Z,57.97
2022-11-02T14:51:45.863Z,57.22
2022-11-02T14:54:20.394Z,57.66
2022-11-02T14:57:05.171Z,57.81
2022-11-02T14:59:45.651Z,57.79
2022-11-02T15:02:38.651Z,57.96
2022-11-02T15:05:38.405Z,58.14
2022-11-02T15:08:06.023Z,58.12
2022-11-02T15:10:33.109Z,58.12
2022-11-02T15:13:19.148Z,58.10
2022-11-02T15:15:55.004Z,58.27
2022-11-02T15:18:40.325Z,58.45
2022-11-02T15:21:10.344Z,58.55
2022-11-02T15:24:15.564Z,58.42
2022-11-02T15:26:59.118Z,58.25
2022-11-02T15:29:44.979Z,58.28
2022-11-02T15:32:26.921Z,58.36
2022-11-02T15:34:57.188Z,58.54
2022-11-02T15:37:37.433Z,58.76
2022-11-02T15:40:50.204Z,59.37
2022-11-02T15:43:58.786Z,59.36
2022-11-02T15:46:47.403Z,59.64
2022-11-02T15:49:59.213Z,59.49
2022-11-02T15:52:46.470Z,59.38
2022-11-02T15:56:02.222Z,59.44
2022-11-02T15:58:52.491Z,60.14
2022-11-02T16:01:28.374Z,60.24
2022-11-02T16:04:01.486Z,60.07
2022-11-02T16:06:49.108Z,60.02
2022-11-02T16:09:39.203Z,60.19
2022-11-02T16:12:24.758Z,60.49
2022-11-02T16:14:58.219Z,60.63
2022-11-02T16:17:28.069Z,60.50
2022-11-02T16:20:18.514Z,60.58
2022-11-02T16:22:54.296Z,60.54
2022-11-02T16:25:41.618Z,60.35
2022-11-02T16:28:17.356Z,60.70
2022-11-02T16:31:10.067Z,60.76
2022-11-02T16:33:48.540Z,60.99
2022-11-02T16:36:19.042Z,60.77
2022-11-02T16:39:21.707Z,60.85
2022-11-02T16:41:54.057Z,60.64
2022-11-02T16:44:27.525Z,60.74
2022-11-02T16:47:01.101Z,60.55
2022-11-02T16:49:29.388Z,60.74
2022-11-02T16:52:17.894Z,60.65
2022-11-02T16:54:45.878Z,60.78
2022-11-02T16:57:21.073Z,60.70
2022-11-02T17:00:01.488Z,60.61
2022-11-02T17:02:42.764Z,60.82
2022-11-02T17:05:25.016Z,60.76
2022-11-02T17:08:05.907Z,60.69
2022-11-02T17:10:36.092Z,60.71
2022-11-02T17:13:06.997Z,60.87
2022-11-02T17:15:35.015Z,61.04
2022-11-02T17:18:08.653Z,60.93
2022-11-02T17:20:38.718Z,60.94
2022-11-02T17:23:10.483Z,61.14
2022-11-02T17:25:40.635Z,60.97
2022-11-02T17:28:47.087Z,61.16
2022-11-02T17:31:33.535Z,61.26
2022-11-02T17:34:17.617Z,61.33
2022-11-02T17:36:48.223Z,61.23
2022-11-02T17:39:19.013Z,61.36
2022-11-02T17:41:54.207Z,61.25
2022-11-02T17:44:21.353Z,61.12
2022-11-02T17:46:48.754Z,61.10
2022-11-02T17:49:15.881Z,61.21
2022-11-02T17:51:43.265Z,61.19
2022-11-02T17:54:14.201Z,60.99
2022-11-02T17:56:41.809Z,61.17
2022-11-02T17:59:09.030Z,60.88
2022-11-02T18:01:36.470Z,61.01
2022-11-02T18:04:03.787Z,61.03
2022-11-02T18:06:30.939Z,61.06
2022-11-02T18:08:58.019Z,61.16
2022-11-02T18:11:26.645Z,61.23
2022-11-02T18:13:54.104Z,60.98
2022-11-02T18:16:21.446Z,61.20
2022-11-02T18:18:48.667Z,61.17
2022-11-02T18:21:16.002Z,61.12
2022-11-02T18:23:43.123Z,61.01
2022-11-02T18:26:12.526Z,61.04
2022-11-02T18:28:40.257Z,61.02
2022-11-02T18:31:09.141Z,60.94
2022-11-02T18:33:36.473Z,60.97
2022-11-02T18:36:09.661Z,61.11
2022-11-02T18:38:37.778Z,60.96
2022-11-02T18:41:09.606Z,61.25
2022-11-02T18:43:36.827Z,61.16
2022-11-02T18:46:04.035Z,60.97
2022-11-02T18:48:31.165Z,60.94
2022-11-02T18:51:03.255Z,60.76
2022-11-02T18:53:30.432Z,60.83
2022-11-02T18:56:06.802Z,60.79
2022-11-02T18:58:34.097Z,60.57
2022-11-02T19:01:13.032Z,60.71
2022-11-02T19:03:40.268Z,60.69
2022-11-02T19:06:07.651Z,60.83
2022-11-02T19:08:35.115Z,60.70
2022-11-02T19:11:02.291Z,61.00
2022-11-02T19:13:29.473Z,60.65
2022-11-02T19:15:56.830Z,60.50
2022-11-02T19:18:24.061Z,60.70
2022-11-02T19:20:51.690Z,60.46
2022-11-02T19:23:18.855Z,60.69
2022-11-02T19:25:52.406Z,60.74
2022-11-02T19:28:19.529Z,60.55
2022-11-02T19:30:46.988Z,60.38
2022-11-02T19:33:14.191Z,60.68
2022-11-02T19:35:41.350Z,60.90
2022-11-02T19:38:08.599Z,60.72
2022-11-02T19:40:35.908Z,60.90
2022-11-02T19:43:03.705Z,60.82
2022-11-02T19:45:31.199Z,60.70
2022-11-02T19:48:02.122Z,60.88
2022-11-02T19:50:29.433Z,61.13
2022-11-02T19:52:56.874Z,61.06
2022-11-02T19:55:24.033Z,61.11
2022-11-02T19:57:51.223Z,61.37
2022-11-02T20:00:18.658Z,61.34
2022-11-02T20:02:49.541Z,61.17
2022-11-02T20:05:16.948Z,61.07
2022-11-02T20:07:44.074Z,61.11
2022-11-02T20:10:11.295Z,61.13
2022-11-02T20:12:38.562Z,61.32
2022-11-02T20:15:06.344Z,60.79
2022-11-02T20:17:46.576Z,60.81
2022-11-02T20:20:19.626Z,60.66
2022-11-02T20:22:46.821Z,60.91
2022-11-02T20:25:14.273Z,60.70
2022-11-02T20:27:41.542Z,60.75
2022-11-02T20:30:09.559Z,60.65
2022-11-02T20:32:36.910Z,60.50
2022-11-02T20:35:07.434Z,60.14
2022-11-02T20:37:38.364Z,60.26
2022-11-02T20:40:06.271Z,60.10
2022-11-02T20:42:35.851Z,60.63
2022-11-02T20:45:03.148Z,60.70
2022-11-02T20:47:30.323Z,60.50
2022-11-02T20:49:57.853Z,60.18
2022-11-02T20:52:25.079Z,59.99
2022-11-02T20:54:52.333Z,60.38
2022-11-02T20:57:19.506Z,60.28
2022-11-02T20:59:46.753Z,60.01
2022-11-02T21:02:14.138Z,59.72
2022-11-02T21:04:41.568Z,59.61
2022-11-02T21:07:08.770Z,59.77
2022-11-02T21:09:36.145Z,59.71
2022-11-02T21:12:03.489Z,59.81
2022-11-02T21:14:30.597Z,60.03
2022-11-02T21:16:57.888Z,59.94
2022-11-02T21:19:25.335Z,59.94
2022-11-02T21:21:56.712Z,60.28
2022-11-02T21:24:28.132Z,60.18
2022-11-02T21:26:55.316Z,60.21
2022-11-02T21:29:22.443Z,60.21
2022-11-02T21:31:49.661Z,60.47
2022-11-02T21:34:17.130Z,60.52
2022-11-02T21:36:44.425Z,60.56
2022-11-02T21:39:11.619Z,60.53
2022-11-02T21:41:38.780Z,60.62
2022-11-02T21:44:07.425Z,60.36
2022-11-02T21:46:35.536Z,60.65
2022-11-02T21:49:03.134Z,60.18
2022-11-02T21:51:30.675Z,60.74
2022-11-02T21:53:57.938Z,60.45
2022-11-02T21:56:27.866Z,60.60
2022-11-02T21:58:55.660Z,60.76
2022-11-02T22:01:31.145Z,60.38
2022-11-02T22:03:58.831Z,60.74
2022-11-02T22:06:30.995Z,60.71
2022-11-02T22:08:59.982Z,60.56
2022-11-02T22:11:28.589Z,60.61
2022-11-02T22:13:59.175Z,60.70
2022-11-02T22:16:34.940Z,60.83
2022-11-02T22:19:08.298Z,60.83
2022-11-02T22:21:45.877Z,60.91
2022-11-02T22:24:13.078Z,61.36
2022-11-02T22:26:41.417Z,61.05
2022-11-02T22:29:09.411Z,61.15
2022-11-02T22:31:40.411Z,61.09
2022-11-02T22:34:11.234Z,61.62
2022-11-02T22:36:44.959Z,61.04
2022-11-02T22:39:13.902Z,61.25
2022-11-02T22:41:48.124Z,61.33
2022-11-02T22:44:19.183Z,61.38
2022-11-02T22:46:50.044Z,60.94
2022-11-02T22:49:19.561Z,61.22
2022-11-02T22:51:50.052Z,61.46
2022-11-02T22:54:20.304Z,61.50
2022-11-02T22:56:48.974Z,61.80
2022-11-02T22:59:16.950Z,61.80
2022-11-02T23:01:44.347Z,61.95
2022-11-02T23:04:12.243Z,61.76
2022-11-02T23:06:40.095Z,61.68
2022-11-02T23:09:10.843Z,61.72
2022-11-02T23:11:38.404Z,61.67
2022-11-02T23:14:09.997Z,61.44
2022-11-02T23:16:43.656Z,61.82
2022-11-02T23:19:25.328Z,61.61
2022-11-02T23:22:12.407Z,61.72
2022-11-02T23:24:45.070Z,61.90
2022-11-02T23:27:12.257Z,61.88
2022-11-02T23:29:39.446Z,61.86
2022-11-02T23:32:07.234Z,61.82
2022-11-02T23:34:34.382Z,61.81
2022-11-02T23:37:01.900Z,61.62
2022-11-02T23:39:29.128Z,61.79
2022-11-02T23:41:56.265Z,61.76
2022-11-02T23:44:23.451Z,61.89
2022-11-02T23:46:52.524Z,61.88
2022-11-02T23:49:19.735Z,61.89
2022-11-02T23:51:46.914Z,62.18
2022-11-02T23:54:14.054Z,61.95
2022-11-02T23:56:41.288Z,61.98
2022-11-02T23:59:08.902Z,61.95
